Ryde, United Kingdom
Current Conditions -  °F | °C
As of 10:20 PM on Wednesday 22 Oct 2014 (Local Time) from EGHI Reporting Station
Broken Clouds Broken Clouds  
Wind Chill: 52°   Ceiling: 3300
Heat Index: 52°   Visibility: 6mi
Dew Point: 45°   Wind: 6mph
Humidity: 76%   Direction: 250°WSW
Pressure: 30.24"   Gusts: NA
Location:  50.73°N, 1.16°W
Report Text: EGHI 222120Z 25005KT 9999 BKN033 11/07 Q1024
Loading
Personal Weather Stations






























Interactive Weather Map
Tropical Storm Tracking
New forecast layout! Learn more

10-Day Weather Forecast

Advertisements
Track Severe Weather on mobile